Archival Weather

Nawabshah

Nawabshah, Pakistan (OPNH)

Report from: Tuesday, September 19, 2023 11:00 AM PKT
Current time: Friday, April 19, 2024 3:12 PM PKT

Current weather – Weather history – Daily summaries
Weather forecast

Temperature35.0°C (95.0°F)
Heat index45.0°C (112.9°F)
Dew point26.0°C (78.8°F)
Winds 10 kts (5.1 m/s, 11.5 mph) North (360°)
Visibility4.3 mi. (7 km)
Clouds Few clouds 3,500 ft. (1,067 m)
Scattered clouds 10,000 ft. (3,048 m)
Altimeter29.62 in.Hg (1003 mB)
Relative humidity60 %
Density altitude3,060 ft. (933 m)
Flight conditions Marginal Visual Meteorological Conditions
Raw dataOPNH 190600Z 36010KT 7000 FEW035 SCT100 35/26 Q1003
An error has occurred. This application may no longer respond until reloaded. Reload 🗙